sensor_id;sensor_type;location;lat;lon;timestamp;P1;durP1;ratioP1;P2;durP2;ratioP2
38037;SDS011;23843;51.320;12.340;2023-11-21T00:01:07;0.23;;;0.20;;
38037;SDS011;23843;51.320;12.340;2023-11-21T00:03:32;0.70;;;0.70;;
38037;SDS011;23843;51.320;12.340;2023-11-21T00:05:58;0.20;;;0.20;;
38037;SDS011;23843;51.320;12.340;2023-11-21T00:08:23;0.20;;;0.10;;
38037;SDS011;23843;51.320;12.340;2023-11-21T00:10:49;0.07;;;0.07;;
38037;SDS011;23843;51.320;12.340;2023-11-21T00:13:14;0.10;;;0.10;;
38037;SDS011;23843;51.320;12.340;2023-11-21T00:15:39;0.20;;;0.20;;
38037;SDS011;23843;51.320;12.340;2023-11-21T00:18:06;0.60;;;0.60;;
38037;SDS011;23843;51.320;12.340;2023-11-21T00:20:32;0.30;;;0.20;;
38037;SDS011;23843;51.320;12.340;2023-11-21T00:22:57;0.10;;;0.10;;
38037;SDS011;23843;51.320;12.340;2023-11-21T00:25:23;0.10;;;0.10;;
38037;SDS011;23843;51.320;12.340;2023-11-21T00:27:48;0.10;;;0.00;;
38037;SDS011;23843;51.320;12.340;2023-11-21T00:30:14;0.00;;;0.00;;
38037;SDS011;23843;51.320;12.340;2023-11-21T00:32:40;0.10;;;0.10;;
38037;SDS011;23843;51.320;12.340;2023-11-21T00:35:07;0.10;;;0.10;;
38037;SDS011;23843;51.320;12.340;2023-11-21T00:37:32;0.17;;;0.10;;
38037;SDS011;23843;51.320;12.340;2023-11-21T00:39:58;0.10;;;0.10;;
38037;SDS011;23843;51.320;12.340;2023-11-21T00:42:23;0.20;;;0.20;;
38037;SDS011;23843;51.320;12.340;2023-11-21T00:44:49;0.10;;;0.10;;
38037;SDS011;23843;51.320;12.340;2023-11-21T00:47:14;0.00;;;0.00;;
38037;SDS011;23843;51.320;12.340;2023-11-21T00:49:40;0.10;;;0.10;;
38037;SDS011;23843;51.320;12.340;2023-11-21T00:52:06;0.10;;;0.00;;
38037;SDS011;23843;51.320;12.340;2023-11-21T00:54:32;0.10;;;0.10;;
38037;SDS011;23843;51.320;12.340;2023-11-21T00:56:57;0.20;;;0.20;;
38037;SDS011;23843;51.320;12.340;2023-11-21T00:59:23;0.20;;;0.20;;
38037;SDS011;23843;51.320;12.340;2023-11-21T01:01:48;0.20;;;0.10;;
38037;SDS011;23843;51.320;12.340;2023-11-21T01:04:14;0.10;;;0.10;;
38037;SDS011;23843;51.320;12.340;2023-11-21T01:06:39;0.10;;;0.10;;
38037;SDS011;23843;51.320;12.340;2023-11-21T01:09:06;0.10;;;0.10;;
38037;SDS011;23843;51.320;12.340;2023-11-21T01:11:31;0.10;;;0.10;;
38037;SDS011;23843;51.320;12.340;2023-11-21T01:13:57;0.30;;;0.20;;
38037;SDS011;23843;51.320;12.340;2023-11-21T01:16:31;0.10;;;0.10;;
38037;SDS011;23843;51.320;12.340;2023-11-21T01:18:57;0.67;;;0.40;;
38037;SDS011;23843;51.320;12.340;2023-11-21T01:21:22;0.50;;;0.10;;
38037;SDS011;23843;51.320;12.340;2023-11-21T01:23:48;0.20;;;0.10;;
38037;SDS011;23843;51.320;12.340;2023-11-21T01:26:14;0.10;;;0.10;;
38037;SDS011;23843;51.320;12.340;2023-11-21T01:28:40;0.10;;;0.10;;
38037;SDS011;23843;51.320;12.340;2023-11-21T01:31:05;0.20;;;0.20;;
38037;SDS011;23843;51.320;12.340;2023-11-21T01:33:31;0.30;;;0.30;;
38037;SDS011;23843;51.320;12.340;2023-11-21T01:35:56;0.10;;;0.10;;
38037;SDS011;23843;51.320;12.340;2023-11-21T01:38:22;0.10;;;0.10;;
38037;SDS011;23843;51.320;12.340;2023-11-21T01:40:47;0.47;;;0.30;;
38037;SDS011;23843;51.320;12.340;2023-11-21T01:43:14;0.37;;;0.30;;
38037;SDS011;23843;51.320;12.340;2023-11-21T01:45:39;0.20;;;0.20;;
38037;SDS011;23843;51.320;12.340;2023-11-21T01:48:05;0.30;;;0.30;;
38037;SDS011;23843;51.320;12.340;2023-11-21T01:50:31;0.20;;;0.20;;
38037;SDS011;23843;51.320;12.340;2023-11-21T01:52:56;0.40;;;0.20;;
38037;SDS011;23843;51.320;12.340;2023-11-21T01:55:22;0.20;;;0.20;;
38037;SDS011;23843;51.320;12.340;2023-11-21T01:57:48;0.40;;;0.23;;
38037;SDS011;23843;51.320;12.340;2023-11-21T02:00:15;0.30;;;0.20;;
38037;SDS011;23843;51.320;12.340;2023-11-21T02:02:41;0.10;;;0.10;;
38037;SDS011;23843;51.320;12.340;2023-11-21T02:05:07;0.17;;;0.17;;
38037;SDS011;23843;51.320;12.340;2023-11-21T02:07:33;0.07;;;0.07;;
38037;SDS011;23843;51.320;12.340;2023-11-21T02:09:58;0.10;;;0.10;;
38037;SDS011;23843;51.320;12.340;2023-11-21T02:12:24;0.30;;;0.30;;
38037;SDS011;23843;51.320;12.340;2023-11-21T02:14:49;0.10;;;0.10;;
38037;SDS011;23843;51.320;12.340;2023-11-21T02:17:16;0.10;;;0.10;;
38037;SDS011;23843;51.320;12.340;2023-11-21T02:19:41;0.00;;;0.00;;
38037;SDS011;23843;51.320;12.340;2023-11-21T02:22:07;0.00;;;0.00;;
38037;SDS011;23843;51.320;12.340;2023-11-21T02:24:35;0.13;;;0.13;;
38037;SDS011;23843;51.320;12.340;2023-11-21T02:27:00;0.30;;;0.10;;
38037;SDS011;23843;51.320;12.340;2023-11-21T02:29:26;0.00;;;0.00;;
38037;SDS011;23843;51.320;12.340;2023-11-21T02:31:51;0.00;;;0.00;;
38037;SDS011;23843;51.320;12.340;2023-11-21T02:34:17;0.00;;;0.00;;
38037;SDS011;23843;51.320;12.340;2023-11-21T02:36:43;0.10;;;0.10;;
38037;SDS011;23843;51.320;12.340;2023-11-21T02:39:09;0.10;;;0.10;;
38037;SDS011;23843;51.320;12.340;2023-11-21T02:41:36;0.10;;;0.10;;
38037;SDS011;23843;51.320;12.340;2023-11-21T02:44:02;0.20;;;0.20;;
38037;SDS011;23843;51.320;12.340;2023-11-21T02:46:27;0.10;;;0.10;;
38037;SDS011;23843;51.320;12.340;2023-11-21T02:48:53;0.40;;;0.30;;
38037;SDS011;23843;51.320;12.340;2023-11-21T02:51:18;0.37;;;0.23;;
38037;SDS011;23843;51.320;12.340;2023-11-21T02:53:44;0.20;;;0.20;;
38037;SDS011;23843;51.320;12.340;2023-11-21T02:56:09;0.20;;;0.20;;
38037;SDS011;23843;51.320;12.340;2023-11-21T02:58:36;0.20;;;0.10;;
38037;SDS011;23843;51.320;12.340;2023-11-21T03:01:02;0.47;;;0.17;;
38037;SDS011;23843;51.320;12.340;2023-11-21T03:03:27;0.10;;;0.10;;
38037;SDS011;23843;51.320;12.340;2023-11-21T03:05:52;0.10;;;0.10;;
38037;SDS011;23843;51.320;12.340;2023-11-21T03:08:18;0.37;;;0.20;;
38037;SDS011;23843;51.320;12.340;2023-11-21T03:10:43;0.10;;;0.10;;
38037;SDS011;23843;51.320;12.340;2023-11-21T03:13:09;0.47;;;0.10;;
38037;SDS011;23843;51.320;12.340;2023-11-21T03:15:35;0.10;;;0.10;;
38037;SDS011;23843;51.320;12.340;2023-11-21T03:18:01;0.27;;;0.10;;
38037;SDS011;23843;51.320;12.340;2023-11-21T03:20:26;0.00;;;0.00;;
38037;SDS011;23843;51.320;12.340;2023-11-21T03:22:52;0.60;;;0.33;;
38037;SDS011;23843;51.320;12.340;2023-11-21T03:25:17;0.20;;;0.20;;
38037;SDS011;23843;51.320;12.340;2023-11-21T03:27:43;0.77;;;0.30;;
38037;SDS011;23843;51.320;12.340;2023-11-21T03:30:08;0.20;;;0.20;;
38037;SDS011;23843;51.320;12.340;2023-11-21T03:32:36;0.10;;;0.10;;
38037;SDS011;23843;51.320;12.340;2023-11-21T03:35:02;0.10;;;0.10;;
38037;SDS011;23843;51.320;12.340;2023-11-21T03:37:27;0.10;;;0.10;;
38037;SDS011;23843;51.320;12.340;2023-11-21T03:39:53;0.10;;;0.10;;
38037;SDS011;23843;51.320;12.340;2023-11-21T03:42:19;0.00;;;0.00;;
38037;SDS011;23843;51.320;12.340;2023-11-21T03:44:45;0.10;;;0.10;;
38037;SDS011;23843;51.320;12.340;2023-11-21T03:47:10;0.10;;;0.10;;
38037;SDS011;23843;51.320;12.340;2023-11-21T03:49:37;0.20;;;0.20;;
38037;SDS011;23843;51.320;12.340;2023-11-21T03:52:03;0.30;;;0.30;;
38037;SDS011;23843;51.320;12.340;2023-11-21T03:54:29;0.17;;;0.17;;
38037;SDS011;23843;51.320;12.340;2023-11-21T03:56:54;0.10;;;0.10;;
38037;SDS011;23843;51.320;12.340;2023-11-21T03:59:20;0.27;;;0.17;;
38037;SDS011;23843;51.320;12.340;2023-11-21T04:01:45;0.20;;;0.20;;
38037;SDS011;23843;51.320;12.340;2023-11-21T04:04:11;0.30;;;0.27;;
38037;SDS011;23843;51.320;12.340;2023-11-21T04:06:38;0.47;;;0.13;;
38037;SDS011;23843;51.320;12.340;2023-11-21T04:09:03;0.60;;;0.40;;
38037;SDS011;23843;51.320;12.340;2023-11-21T04:11:29;0.20;;;0.20;;
38037;SDS011;23843;51.320;12.340;2023-11-21T04:13:54;0.10;;;0.10;;
38037;SDS011;23843;51.320;12.340;2023-11-21T04:16:20;0.30;;;0.10;;
38037;SDS011;23843;51.320;12.340;2023-11-21T04:18:45;0.30;;;0.30;;
38037;SDS011;23843;51.320;12.340;2023-11-21T04:21:10;0.30;;;0.30;;
38037;SDS011;23843;51.320;12.340;2023-11-21T04:23:37;0.30;;;0.30;;
38037;SDS011;23843;51.320;12.340;2023-11-21T04:26:03;0.27;;;0.20;;
38037;SDS011;23843;51.320;12.340;2023-11-21T04:28:28;0.30;;;0.30;;
38037;SDS011;23843;51.320;12.340;2023-11-21T04:30:54;0.20;;;0.20;;
38037;SDS011;23843;51.320;12.340;2023-11-21T04:33:19;0.23;;;0.20;;
38037;SDS011;23843;51.320;12.340;2023-11-21T04:35:45;0.10;;;0.10;;
38037;SDS011;23843;51.320;12.340;2023-11-21T04:38:10;0.10;;;0.10;;
38037;SDS011;23843;51.320;12.340;2023-11-21T04:40:37;0.20;;;0.20;;
38037;SDS011;23843;51.320;12.340;2023-11-21T04:43:02;0.20;;;0.20;;
38037;SDS011;23843;51.320;12.340;2023-11-21T04:45:28;0.30;;;0.13;;
38037;SDS011;23843;51.320;12.340;2023-11-21T04:47:53;0.17;;;0.17;;
38037;SDS011;23843;51.320;12.340;2023-11-21T04:50:19;0.10;;;0.10;;
38037;SDS011;23843;51.320;12.340;2023-11-21T04:52:44;0.10;;;0.10;;
38037;SDS011;23843;51.320;12.340;2023-11-21T04:55:10;0.10;;;0.10;;
38037;SDS011;23843;51.320;12.340;2023-11-21T04:57:36;0.13;;;0.10;;
38037;SDS011;23843;51.320;12.340;2023-11-21T05:00:02;0.20;;;0.20;;
38037;SDS011;23843;51.320;12.340;2023-11-21T05:02:28;0.10;;;0.10;;
38037;SDS011;23843;51.320;12.340;2023-11-21T05:04:53;0.10;;;0.10;;
38037;SDS011;23843;51.320;12.340;2023-11-21T05:07:19;0.20;;;0.10;;
38037;SDS011;23843;51.320;12.340;2023-11-21T05:09:44;0.10;;;0.10;;
38037;SDS011;23843;51.320;12.340;2023-11-21T05:12:10;0.23;;;0.23;;
38037;SDS011;23843;51.320;12.340;2023-11-21T05:14:36;0.20;;;0.13;;
38037;SDS011;23843;51.320;12.340;2023-11-21T05:17:02;0.10;;;0.10;;
38037;SDS011;23843;51.320;12.340;2023-11-21T05:19:27;0.20;;;0.20;;
38037;SDS011;23843;51.320;12.340;2023-11-21T05:21:53;0.30;;;0.20;;
38037;SDS011;23843;51.320;12.340;2023-11-21T05:24:18;0.83;;;0.40;;
38037;SDS011;23843;51.320;12.340;2023-11-21T05:26:44;0.20;;;0.20;;
38037;SDS011;23843;51.320;12.340;2023-11-21T05:29:09;0.17;;;0.17;;
38037;SDS011;23843;51.320;12.340;2023-11-21T05:31:36;0.50;;;0.10;;
38037;SDS011;23843;51.320;12.340;2023-11-21T05:34:01;0.20;;;0.20;;
38037;SDS011;23843;51.320;12.340;2023-11-21T05:36:28;0.10;;;0.10;;
38037;SDS011;23843;51.320;12.340;2023-11-21T05:38:53;0.70;;;0.20;;
38037;SDS011;23843;51.320;12.340;2023-11-21T05:41:19;0.50;;;0.20;;
38037;SDS011;23843;51.320;12.340;2023-11-21T05:43:44;0.40;;;0.20;;
38037;SDS011;23843;51.320;12.340;2023-11-21T05:46:10;0.30;;;0.30;;
38037;SDS011;23843;51.320;12.340;2023-11-21T05:48:36;0.30;;;0.30;;
38037;SDS011;23843;51.320;12.340;2023-11-21T05:51:02;0.20;;;0.20;;
38037;SDS011;23843;51.320;12.340;2023-11-21T05:53:28;0.40;;;0.40;;
38037;SDS011;23843;51.320;12.340;2023-11-21T05:55:53;1.60;;;0.40;;
38037;SDS011;23843;51.320;12.340;2023-11-21T05:58:19;0.90;;;0.40;;
38037;SDS011;23843;51.320;12.340;2023-11-21T06:00:44;0.63;;;0.20;;
38037;SDS011;23843;51.320;12.340;2023-11-21T06:03:10;0.33;;;0.33;;
38037;SDS011;23843;51.320;12.340;2023-11-21T06:05:36;0.30;;;0.20;;
38037;SDS011;23843;51.320;12.340;2023-11-21T06:08:02;0.23;;;0.23;;
38037;SDS011;23843;51.320;12.340;2023-11-21T06:10:28;0.17;;;0.17;;
38037;SDS011;23843;51.320;12.340;2023-11-21T06:12:53;0.10;;;0.10;;
38037;SDS011;23843;51.320;12.340;2023-11-21T06:15:19;0.37;;;0.30;;
38037;SDS011;23843;51.320;12.340;2023-11-21T06:17:45;0.40;;;0.33;;
38037;SDS011;23843;51.320;12.340;2023-11-21T06:20:10;0.20;;;0.20;;
38037;SDS011;23843;51.320;12.340;2023-11-21T06:22:38;0.53;;;0.30;;
38037;SDS011;23843;51.320;12.340;2023-11-21T06:25:04;0.30;;;0.20;;
38037;SDS011;23843;51.320;12.340;2023-11-21T06:27:31;0.20;;;0.20;;
38037;SDS011;23843;51.320;12.340;2023-11-21T06:29:56;0.43;;;0.30;;
38037;SDS011;23843;51.320;12.340;2023-11-21T06:32:22;0.53;;;0.30;;
38037;SDS011;23843;51.320;12.340;2023-11-21T06:34:47;0.10;;;0.10;;
38037;SDS011;23843;51.320;12.340;2023-11-21T06:37:13;0.30;;;0.30;;
38037;SDS011;23843;51.320;12.340;2023-11-21T06:39:39;0.20;;;0.20;;
38037;SDS011;23843;51.320;12.340;2023-11-21T06:42:05;0.40;;;0.40;;
38037;SDS011;23843;51.320;12.340;2023-11-21T06:44:31;0.47;;;0.30;;
38037;SDS011;23843;51.320;12.340;2023-11-21T06:46:56;0.30;;;0.30;;
38037;SDS011;23843;51.320;12.340;2023-11-21T06:49:21;0.20;;;0.20;;
38037;SDS011;23843;51.320;12.340;2023-11-21T06:51:47;0.57;;;0.30;;
38037;SDS011;23843;51.320;12.340;2023-11-21T06:54:12;0.37;;;0.37;;
38037;SDS011;23843;51.320;12.340;2023-11-21T06:56:39;0.40;;;0.40;;
38037;SDS011;23843;51.320;12.340;2023-11-21T06:59:05;0.30;;;0.30;;
38037;SDS011;23843;51.320;12.340;2023-11-21T07:01:30;0.20;;;0.20;;
38037;SDS011;23843;51.320;12.340;2023-11-21T07:03:56;0.20;;;0.20;;
38037;SDS011;23843;51.320;12.340;2023-11-21T07:06:21;0.20;;;0.20;;
38037;SDS011;23843;51.320;12.340;2023-11-21T07:08:46;0.60;;;0.40;;
38037;SDS011;23843;51.320;12.340;2023-11-21T07:11:12;0.40;;;0.40;;
38037;SDS011;23843;51.320;12.340;2023-11-21T07:13:39;1.00;;;0.67;;
38037;SDS011;23843;51.320;12.340;2023-11-21T07:16:04;0.97;;;0.60;;
38037;SDS011;23843;51.320;12.340;2023-11-21T07:18:31;0.60;;;0.43;;
38037;SDS011;23843;51.320;12.340;2023-11-21T07:20:56;0.37;;;0.37;;
38037;SDS011;23843;51.320;12.340;2023-11-21T07:23:21;0.83;;;0.40;;
38037;SDS011;23843;51.320;12.340;2023-11-21T07:25:47;0.20;;;0.20;;
38037;SDS011;23843;51.320;12.340;2023-11-21T07:28:12;0.40;;;0.33;;
38037;SDS011;23843;51.320;12.340;2023-11-21T07:30:39;1.00;;;0.57;;
38037;SDS011;23843;51.320;12.340;2023-11-21T07:33:04;0.60;;;0.60;;
38037;SDS011;23843;51.320;12.340;2023-11-21T07:35:30;0.40;;;0.40;;
38037;SDS011;23843;51.320;12.340;2023-11-21T07:37:55;0.30;;;0.30;;
38037;SDS011;23843;51.320;12.340;2023-11-21T07:40:21;0.40;;;0.40;;
38037;SDS011;23843;51.320;12.340;2023-11-21T07:42:46;0.27;;;0.27;;
38037;SDS011;23843;51.320;12.340;2023-11-21T07:45:12;0.60;;;0.60;;
38037;SDS011;23843;51.320;12.340;2023-11-21T07:47:38;1.53;;;0.90;;
38037;SDS011;23843;51.320;12.340;2023-11-21T07:50:04;0.60;;;0.60;;
38037;SDS011;23843;51.320;12.340;2023-11-21T07:52:30;0.90;;;0.80;;
38037;SDS011;23843;51.320;12.340;2023-11-21T07:54:56;2.10;;;1.60;;
38037;SDS011;23843;51.320;12.340;2023-11-21T07:57:21;1.80;;;1.20;;
38037;SDS011;23843;51.320;12.340;2023-11-21T07:59:47;1.13;;;0.80;;
38037;SDS011;23843;51.320;12.340;2023-11-21T08:02:12;1.00;;;0.67;;
38037;SDS011;23843;51.320;12.340;2023-11-21T08:04:39;1.00;;;0.90;;
38037;SDS011;23843;51.320;12.340;2023-11-21T08:07:04;3.50;;;1.50;;
38037;SDS011;23843;51.320;12.340;2023-11-21T08:09:30;1.50;;;1.20;;
38037;SDS011;23843;51.320;12.340;2023-11-21T08:11:56;2.77;;;1.40;;
38037;SDS011;23843;51.320;12.340;2023-11-21T08:14:21;1.30;;;0.80;;
38037;SDS011;23843;51.320;12.340;2023-11-21T08:16:47;1.00;;;0.80;;
38037;SDS011;23843;51.320;12.340;2023-11-21T08:19:12;1.20;;;0.80;;
38037;SDS011;23843;51.320;12.340;2023-11-21T08:21:39;1.53;;;0.73;;
38037;SDS011;23843;51.320;12.340;2023-11-21T08:24:05;2.50;;;1.40;;
38037;SDS011;23843;51.320;12.340;2023-11-21T08:26:31;2.70;;;1.60;;
38037;SDS011;23843;51.320;12.340;2023-11-21T08:28:56;1.53;;;1.10;;
38037;SDS011;23843;51.320;12.340;2023-11-21T08:31:25;1.27;;;0.90;;
38037;SDS011;23843;51.320;12.340;2023-11-21T08:33:51;2.90;;;1.97;;
38037;SDS011;23843;51.320;12.340;2023-11-21T08:36:16;3.37;;;1.90;;
38037;SDS011;23843;51.320;12.340;2023-11-21T08:38:43;2.40;;;1.40;;
38037;SDS011;23843;51.320;12.340;2023-11-21T08:41:08;1.37;;;0.93;;
38037;SDS011;23843;51.320;12.340;2023-11-21T08:43:34;1.50;;;1.20;;
38037;SDS011;23843;51.320;12.340;2023-11-21T08:46:00;1.43;;;0.90;;
38037;SDS011;23843;51.320;12.340;2023-11-21T08:48:25;0.80;;;0.70;;
38037;SDS011;23843;51.320;12.340;2023-11-21T08:50:50;0.93;;;0.63;;
38037;SDS011;23843;51.320;12.340;2023-11-21T08:53:16;1.17;;;0.77;;
38037;SDS011;23843;51.320;12.340;2023-11-21T08:55:43;0.70;;;0.50;;
38037;SDS011;23843;51.320;12.340;2023-11-21T08:58:08;0.80;;;0.50;;
38037;SDS011;23843;51.320;12.340;2023-11-21T09:00:33;0.47;;;0.40;;
38037;SDS011;23843;51.320;12.340;2023-11-21T09:03:00;0.50;;;0.50;;
38037;SDS011;23843;51.320;12.340;2023-11-21T09:05:26;1.00;;;0.70;;
38037;SDS011;23843;51.320;12.340;2023-11-21T09:07:52;1.87;;;0.90;;
38037;SDS011;23843;51.320;12.340;2023-11-21T09:10:17;1.07;;;0.90;;
38037;SDS011;23843;51.320;12.340;2023-11-21T09:12:44;1.70;;;1.17;;
38037;SDS011;23843;51.320;12.340;2023-11-21T09:15:09;2.10;;;1.33;;
38037;SDS011;23843;51.320;12.340;2023-11-21T09:17:35;1.63;;;1.10;;
38037;SDS011;23843;51.320;12.340;2023-11-21T09:20:01;4.43;;;2.93;;
38037;SDS011;23843;51.320;12.340;2023-11-21T09:22:27;2.30;;;1.70;;
38037;SDS011;23843;51.320;12.340;2023-11-21T09:24:53;2.50;;;1.50;;
38037;SDS011;23843;51.320;12.340;2023-11-21T09:27:18;2.00;;;1.30;;
38037;SDS011;23843;51.320;12.340;2023-11-21T09:29:46;3.07;;;1.73;;
38037;SDS011;23843;51.320;12.340;2023-11-21T09:32:11;1.90;;;1.23;;
38037;SDS011;23843;51.320;12.340;2023-11-21T09:34:37;1.13;;;0.87;;
38037;SDS011;23843;51.320;12.340;2023-11-21T09:37:03;1.77;;;1.37;;
38037;SDS011;23843;51.320;12.340;2023-11-21T09:39:28;1.10;;;0.93;;
38037;SDS011;23843;51.320;12.340;2023-11-21T09:41:56;1.47;;;1.20;;
38037;SDS011;23843;51.320;12.340;2023-11-21T09:44:27;1.70;;;1.13;;
38037;SDS011;23843;51.320;12.340;2023-11-21T09:47:00;4.33;;;1.90;;
38037;SDS011;23843;51.320;12.340;2023-11-21T09:49:27;1.87;;;1.20;;
38037;SDS011;23843;51.320;12.340;2023-11-21T09:51:54;1.23;;;0.93;;
38037;SDS011;23843;51.320;12.340;2023-11-21T09:54:20;0.87;;;0.70;;
38037;SDS011;23843;51.320;12.340;2023-11-21T09:56:46;0.63;;;0.43;;
38037;SDS011;23843;51.320;12.340;2023-11-21T09:59:13;0.97;;;0.60;;
38037;SDS011;23843;51.320;12.340;2023-11-21T10:01:40;1.70;;;1.00;;
38037;SDS011;23843;51.320;12.340;2023-11-21T10:04:07;0.73;;;0.60;;
38037;SDS011;23843;51.320;12.340;2023-11-21T10:06:33;1.03;;;0.67;;
38037;SDS011;23843;51.320;12.340;2023-11-21T10:08:59;0.83;;;0.80;;
38037;SDS011;23843;51.320;12.340;2023-11-21T10:11:25;1.97;;;1.00;;
38037;SDS011;23843;51.320;12.340;2023-11-21T10:13:52;1.90;;;1.00;;
38037;SDS011;23843;51.320;12.340;2023-11-21T10:16:19;1.63;;;1.30;;
38037;SDS011;23843;51.320;12.340;2023-11-21T10:18:48;1.50;;;1.00;;
38037;SDS011;23843;51.320;12.340;2023-11-21T10:21:18;0.80;;;0.70;;
38037;SDS011;23843;51.320;12.340;2023-11-21T10:23:43;1.30;;;0.80;;
38037;SDS011;23843;51.320;12.340;2023-11-21T10:26:09;2.00;;;1.00;;
38037;SDS011;23843;51.320;12.340;2023-11-21T10:28:37;1.00;;;0.80;;
38037;SDS011;23843;51.320;12.340;2023-11-21T10:31:02;1.60;;;1.00;;
38037;SDS011;23843;51.320;12.340;2023-11-21T10:33:28;0.90;;;0.73;;
38037;SDS011;23843;51.320;12.340;2023-11-21T10:35:53;1.13;;;1.03;;
38037;SDS011;23843;51.320;12.340;2023-11-21T10:38:20;1.53;;;0.83;;
38037;SDS011;23843;51.320;12.340;2023-11-21T10:40:46;0.70;;;0.60;;
38037;SDS011;23843;51.320;12.340;2023-11-21T10:43:11;0.43;;;0.43;;
38037;SDS011;23843;51.320;12.340;2023-11-21T10:45:37;0.93;;;0.77;;
38037;SDS011;23843;51.320;12.340;2023-11-21T10:48:04;1.47;;;1.00;;
38037;SDS011;23843;51.320;12.340;2023-11-21T10:50:30;0.83;;;0.60;;
38037;SDS011;23843;51.320;12.340;2023-11-21T10:52:57;1.97;;;1.30;;
38037;SDS011;23843;51.320;12.340;2023-11-21T10:55:24;1.60;;;1.00;;
38037;SDS011;23843;51.320;12.340;2023-11-21T10:57:51;0.93;;;0.73;;
38037;SDS011;23843;51.320;12.340;2023-11-21T11:00:18;1.50;;;1.20;;
38037;SDS011;23843;51.320;12.340;2023-11-21T11:02:44;1.37;;;0.90;;
38037;SDS011;23843;51.320;12.340;2023-11-21T11:05:11;1.40;;;0.90;;
38037;SDS011;23843;51.320;12.340;2023-11-21T11:07:37;0.90;;;0.70;;
38037;SDS011;23843;51.320;12.340;2023-11-21T11:10:08;1.43;;;1.17;;
38037;SDS011;23843;51.320;12.340;2023-11-21T11:12:35;1.53;;;1.00;;
38037;SDS011;23843;51.320;12.340;2023-11-21T11:15:01;1.80;;;1.17;;
38037;SDS011;23843;51.320;12.340;2023-11-21T11:17:28;1.87;;;1.20;;
38037;SDS011;23843;51.320;12.340;2023-11-21T11:19:53;0.60;;;0.60;;
38037;SDS011;23843;51.320;12.340;2023-11-21T11:22:23;1.23;;;0.63;;
38037;SDS011;23843;51.320;12.340;2023-11-21T11:25:10;1.77;;;1.30;;
38037;SDS011;23843;51.320;12.340;2023-11-21T11:27:51;1.20;;;0.80;;
38037;SDS011;23843;51.320;12.340;2023-11-21T11:30:22;0.70;;;0.60;;
38037;SDS011;23843;51.320;12.340;2023-11-21T11:32:58;0.73;;;0.50;;
38037;SDS011;23843;51.320;12.340;2023-11-21T11:35:34;2.10;;;1.50;;
38037;SDS011;23843;51.320;12.340;2023-11-21T11:38:07;1.70;;;1.23;;
38037;SDS011;23843;51.320;12.340;2023-11-21T11:40:39;2.07;;;1.37;;
38037;SDS011;23843;51.320;12.340;2023-11-21T11:43:06;2.87;;;1.67;;
38037;SDS011;23843;51.320;12.340;2023-11-21T11:45:32;2.27;;;1.40;;
38037;SDS011;23843;51.320;12.340;2023-11-21T11:47:59;1.73;;;1.00;;
38037;SDS011;23843;51.320;12.340;2023-11-21T11:50:25;1.80;;;1.00;;
38037;SDS011;23843;51.320;12.340;2023-11-21T11:52:51;1.90;;;1.30;;
38037;SDS011;23843;51.320;12.340;2023-11-21T11:55:18;2.00;;;1.40;;
38037;SDS011;23843;51.320;12.340;2023-11-21T11:57:46;1.07;;;0.80;;
38037;SDS011;23843;51.320;12.340;2023-11-21T12:00:14;1.30;;;0.80;;
38037;SDS011;23843;51.320;12.340;2023-11-21T12:02:41;1.47;;;0.90;;
38037;SDS011;23843;51.320;12.340;2023-11-21T12:05:08;3.17;;;2.17;;
38037;SDS011;23843;51.320;12.340;2023-11-21T12:07:42;2.97;;;2.10;;
38037;SDS011;23843;51.320;12.340;2023-11-21T12:10:08;2.47;;;1.80;;
38037;SDS011;23843;51.320;12.340;2023-11-21T12:12:37;2.93;;;2.27;;
38037;SDS011;23843;51.320;12.340;2023-11-21T12:15:03;3.23;;;1.73;;
38037;SDS011;23843;51.320;12.340;2023-11-21T12:17:30;2.80;;;1.57;;
38037;SDS011;23843;51.320;12.340;2023-11-21T12:20:01;1.50;;;1.20;;
38037;SDS011;23843;51.320;12.340;2023-11-21T12:22:27;1.17;;;1.00;;
38037;SDS011;23843;51.320;12.340;2023-11-21T12:24:53;1.30;;;1.00;;
38037;SDS011;23843;51.320;12.340;2023-11-21T12:27:20;2.10;;;1.10;;
38037;SDS011;23843;51.320;12.340;2023-11-21T12:29:46;2.20;;;1.30;;
38037;SDS011;23843;51.320;12.340;2023-11-21T12:32:11;2.03;;;1.60;;
38037;SDS011;23843;51.320;12.340;2023-11-21T12:34:38;1.90;;;1.23;;
38037;SDS011;23843;51.320;12.340;2023-11-21T12:37:03;1.60;;;1.10;;
38037;SDS011;23843;51.320;12.340;2023-11-21T12:39:29;1.50;;;1.20;;
38037;SDS011;23843;51.320;12.340;2023-11-21T12:41:54;2.93;;;1.90;;
38037;SDS011;23843;51.320;12.340;2023-11-21T12:44:20;7.07;;;2.73;;
38037;SDS011;23843;51.320;12.340;2023-11-21T12:46:45;4.83;;;2.23;;
38037;SDS011;23843;51.320;12.340;2023-11-21T12:49:11;2.87;;;1.63;;
38037;SDS011;23843;51.320;12.340;2023-11-21T12:51:38;2.30;;;1.47;;
38037;SDS011;23843;51.320;12.340;2023-11-21T12:54:03;1.83;;;1.20;;
38037;SDS011;23843;51.320;12.340;2023-11-21T12:56:29;2.13;;;1.50;;
38037;SDS011;23843;51.320;12.340;2023-11-21T12:58:54;4.07;;;2.80;;
38037;SDS011;23843;51.320;12.340;2023-11-21T13:01:20;3.67;;;2.33;;
38037;SDS011;23843;51.320;12.340;2023-11-21T13:03:46;2.83;;;2.00;;
38037;SDS011;23843;51.320;12.340;2023-11-21T13:06:12;2.33;;;1.63;;
38037;SDS011;23843;51.320;12.340;2023-11-21T13:08:39;4.80;;;2.20;;
38037;SDS011;23843;51.320;12.340;2023-11-21T13:11:05;2.27;;;1.70;;
38037;SDS011;23843;51.320;12.340;2023-11-21T13:13:30;3.93;;;2.53;;
38037;SDS011;23843;51.320;12.340;2023-11-21T13:15:57;3.63;;;2.10;;
38037;SDS011;23843;51.320;12.340;2023-11-21T13:18:24;2.63;;;1.60;;
38037;SDS011;23843;51.320;12.340;2023-11-21T13:20:50;6.37;;;3.27;;
38037;SDS011;23843;51.320;12.340;2023-11-21T13:23:18;3.87;;;2.27;;
38037;SDS011;23843;51.320;12.340;2023-11-21T13:25:44;2.90;;;2.03;;
38037;SDS011;23843;51.320;12.340;2023-11-21T13:28:10;2.17;;;1.60;;
38037;SDS011;23843;51.320;12.340;2023-11-21T13:30:37;2.90;;;1.90;;
38037;SDS011;23843;51.320;12.340;2023-11-21T13:33:03;2.10;;;1.50;;
38037;SDS011;23843;51.320;12.340;2023-11-21T13:35:29;2.43;;;1.80;;
38037;SDS011;23843;51.320;12.340;2023-11-21T13:37:54;2.23;;;1.60;;
38037;SDS011;23843;51.320;12.340;2023-11-21T13:40:20;2.30;;;1.40;;
38037;SDS011;23843;51.320;12.340;2023-11-21T13:42:48;2.03;;;1.20;;
38037;SDS011;23843;51.320;12.340;2023-11-21T13:45:14;1.53;;;1.00;;
38037;SDS011;23843;51.320;12.340;2023-11-21T13:47:39;1.23;;;1.00;;
38037;SDS011;23843;51.320;12.340;2023-11-21T13:50:05;2.40;;;1.70;;
38037;SDS011;23843;51.320;12.340;2023-11-21T13:52:32;1.83;;;1.47;;
38037;SDS011;23843;51.320;12.340;2023-11-21T13:54:57;1.60;;;1.20;;
38037;SDS011;23843;51.320;12.340;2023-11-21T13:57:23;2.37;;;1.30;;
38037;SDS011;23843;51.320;12.340;2023-11-21T13:59:49;1.40;;;0.90;;
38037;SDS011;23843;51.320;12.340;2023-11-21T14:02:15;1.10;;;0.77;;
38037;SDS011;23843;51.320;12.340;2023-11-21T14:04:40;1.27;;;1.00;;
38037;SDS011;23843;51.320;12.340;2023-11-21T14:07:06;1.40;;;1.00;;
38037;SDS011;23843;51.320;12.340;2023-11-21T14:09:31;1.90;;;1.20;;
38037;SDS011;23843;51.320;12.340;2023-11-21T14:11:57;1.00;;;0.90;;
38037;SDS011;23843;51.320;12.340;2023-11-21T14:14:23;1.20;;;0.83;;
38037;SDS011;23843;51.320;12.340;2023-11-21T14:16:50;2.40;;;1.50;;
38037;SDS011;23843;51.320;12.340;2023-11-21T14:19:16;1.90;;;1.17;;
38037;SDS011;23843;51.320;12.340;2023-11-21T14:21:42;2.00;;;1.10;;
38037;SDS011;23843;51.320;12.340;2023-11-21T14:24:07;2.07;;;1.33;;
38037;SDS011;23843;51.320;12.340;2023-11-21T14:26:33;2.07;;;1.40;;